createdAt,value
2022-07-31T00:00:17.094Z,4.75
2022-07-31T00:04:18.583Z,7.90
2022-07-31T00:08:20.103Z,7.05
2022-07-31T00:12:22.229Z,7.72
2022-07-31T00:16:23.695Z,6.05
2022-07-31T00:20:25.215Z,6.63
2022-07-31T00:24:27.017Z,5.22
2022-07-31T00:28:31.642Z,6.50
2022-07-31T00:32:33.251Z,6.75
2022-07-31T00:36:34.758Z,5.25
2022-07-31T00:40:36.343Z,5.70
2022-07-31T00:44:38.528Z,6.20
2022-07-31T00:48:40.139Z,5.88
2022-07-31T00:52:41.922Z,7.25
2022-07-31T00:56:43.482Z,6.30
2022-07-31T01:00:45.153Z,10.57
2022-07-31T01:04:46.650Z,9.60
2022-07-31T01:08:48.457Z,7.40
2022-07-31T01:12:56.649Z,8.93
2022-07-31T01:17:00.331Z,9.07
2022-07-31T01:21:08.660Z,6.47
2022-07-31T01:25:30.026Z,7.55
2022-07-31T01:29:46.253Z,9.00
2022-07-31T01:33:57.457Z,7.22
2022-07-31T01:38:17.147Z,6.72
2022-07-31T01:42:20.588Z,7.43
2022-07-31T01:46:24.965Z,9.02
2022-07-31T01:50:42.633Z,9.60
2022-07-31T01:54:47.436Z,10.52
2022-07-31T01:58:50.454Z,10.15
2022-07-31T02:02:54.410Z,12.00
2022-07-31T02:06:56.840Z,10.20
2022-07-31T02:11:01.114Z,8.65
2022-07-31T02:15:14.633Z,11.88
2022-07-31T02:19:17.376Z,6.78
2022-07-31T02:23:18.968Z,8.85
2022-07-31T02:27:54.259Z,8.38
2022-07-31T02:31:44.359Z,10.77
2022-07-31T02:35:48.949Z,8.70
2022-07-31T02:39:53.061Z,12.73
2022-07-31T02:43:54.917Z,7.63
2022-07-31T02:47:56.824Z,10.75
2022-07-31T02:51:58.657Z,11.75
2022-07-31T02:56:01.924Z,9.43
2022-07-31T03:00:27.180Z,10.77
2022-07-31T03:04:29.937Z,8.27
2022-07-31T03:08:31.493Z,12.30
2022-07-31T03:12:33.018Z,7.57
2022-07-31T03:16:35.888Z,7.53
2022-07-31T03:20:39.422Z,8.15
2022-07-31T03:24:41.130Z,8.25
2022-07-31T03:28:43.268Z,8.10
2022-07-31T03:32:45.466Z,7.88
2022-07-31T03:36:48.722Z,11.38
2022-07-31T03:40:50.232Z,8.27
2022-07-31T03:44:52.064Z,11.40
2022-07-31T03:48:53.821Z,8.85
2022-07-31T03:52:58.373Z,13.93
2022-07-31T03:57:00.782Z,9.50
2022-07-31T04:01:03.154Z,13.90
2022-07-31T04:05:10.219Z,10.63
2022-07-31T04:09:18.657Z,9.73
2022-07-31T04:13:20.531Z,11.05
2022-07-31T04:17:22.195Z,9.80
2022-07-31T04:21:23.635Z,8.68
2022-07-31T04:25:25.075Z,10.70
2022-07-31T04:29:28.799Z,9.35
2022-07-31T04:33:30.338Z,9.07
2022-07-31T04:37:32.855Z,8.38
2022-07-31T04:41:34.503Z,11.85
2022-07-31T04:45:36.079Z,9.15
2022-07-31T04:49:37.770Z,7.75
2022-07-31T04:53:39.291Z,8.02
2022-07-31T04:57:40.797Z,10.77
2022-07-31T05:01:43.736Z,9.90
2022-07-31T05:05:46.568Z,6.93
2022-07-31T05:09:48.304Z,8.18
2022-07-31T05:13:54.686Z,5.82
2022-07-31T05:17:56.143Z,6.18
2022-07-31T05:22:03.745Z,5.80
2022-07-31T05:26:05.775Z,9.52
2022-07-31T05:30:08.253Z,4.93
2022-07-31T05:34:09.749Z,6.68
2022-07-31T05:38:11.726Z,5.07
2022-07-31T05:42:13.375Z,6.80
2022-07-31T05:46:16.739Z,6.57
2022-07-31T05:50:18.790Z,5.03
2022-07-31T05:54:21.492Z,6.13
2022-07-31T05:58:23.225Z,6.47
2022-07-31T06:02:24.722Z,6.85
2022-07-31T06:06:27.048Z,8.07
2022-07-31T06:10:28.685Z,8.68
2022-07-31T06:14:30.185Z,6.15
2022-07-31T06:18:31.662Z,6.93
2022-07-31T06:22:33.168Z,7.20
2022-07-31T06:26:34.651Z,5.30
2022-07-31T06:30:36.183Z,5.97
2022-07-31T06:34:37.646Z,5.60
2022-07-31T06:38:39.252Z,8.35
2022-07-31T06:42:40.898Z,7.78
2022-07-31T06:46:48.708Z,8.50
2022-07-31T06:50:54.199Z,4.47
2022-07-31T06:55:01.506Z,7.47
2022-07-31T06:59:04.125Z,4.50
2022-07-31T07:03:05.700Z,7.03
2022-07-31T07:07:07.235Z,4.10
2022-07-31T07:11:12.103Z,4.78
2022-07-31T07:15:14.088Z,6.63
2022-07-31T07:19:15.608Z,6.05
2022-07-31T07:23:17.170Z,5.38
2022-07-31T07:27:18.817Z,6.43
2022-07-31T07:31:20.354Z,4.30
2022-07-31T07:35:22.093Z,4.90
2022-07-31T07:39:23.602Z,5.35
2022-07-31T07:43:25.171Z,4.93
2022-07-31T07:47:26.785Z,7.05
2022-07-31T07:52:00.011Z,4.15
2022-07-31T07:56:09.825Z,3.97
2022-07-31T08:00:15.103Z,3.65
2022-07-31T08:04:16.700Z,5.90
2022-07-31T08:08:25.984Z,4.22
2022-07-31T08:12:28.304Z,3.55
2022-07-31T08:16:32.237Z,4.28
2022-07-31T08:20:33.805Z,4.40
2022-07-31T08:24:37.943Z,6.28
2022-07-31T08:28:39.468Z,4.30
2022-07-31T08:32:41.078Z,6.82
2022-07-31T08:36:42.741Z,3.40
2022-07-31T08:40:44.858Z,3.55
2022-07-31T08:44:46.790Z,3.10
2022-07-31T08:48:53.498Z,7.20
2022-07-31T08:52:57.024Z,4.63
2022-07-31T08:56:59.350Z,3.08
2022-07-31T09:01:01.586Z,6.88
2022-07-31T09:05:05.080Z,4.35
2022-07-31T09:09:06.596Z,3.47
2022-07-31T09:13:16.007Z,4.70
2022-07-31T09:17:17.517Z,3.22
2022-07-31T09:21:19.062Z,4.35
2022-07-31T09:25:20.621Z,3.70
2022-07-31T09:29:39.879Z,3.47
2022-07-31T09:37:48.594Z,3.35
2022-07-31T09:41:59.888Z,4.18
2022-07-31T09:46:13.034Z,5.22
2022-07-31T09:50:14.754Z,4.03
2022-07-31T09:54:21.973Z,5.60
2022-07-31T09:58:24.985Z,4.53
2022-07-31T10:02:29.687Z,4.70
2022-07-31T10:06:34.568Z,5.13
2022-07-31T10:10:37.236Z,4.50
2022-07-31T10:14:41.348Z,3.65
2022-07-31T10:18:49.593Z,4.28
2022-07-31T10:22:59.267Z,2.83
2022-07-31T10:27:07.808Z,5.97
2022-07-31T10:31:12.587Z,3.60
2022-07-31T10:35:14.689Z,6.63
2022-07-31T10:39:57.641Z,11.80
2022-07-31T10:44:03.759Z,3.65
2022-07-31T10:48:11.338Z,7.32
2022-07-31T10:52:12.913Z,2.88
2022-07-31T10:56:14.625Z,5.53
2022-07-31T11:00:20.721Z,3.78
2022-07-31T11:04:31.866Z,3.30
2022-07-31T11:08:52.164Z,4.40
2022-07-31T11:13:11.097Z,4.85
2022-07-31T11:21:37.597Z,3.40
2022-07-31T11:25:39.050Z,4.57
2022-07-31T11:29:59.336Z,3.22
2022-07-31T11:34:04.132Z,4.25
2022-07-31T11:38:06.812Z,6.75
2022-07-31T11:42:08.270Z,7.35
2022-07-31T11:46:09.804Z,2.83
2022-07-31T11:50:13.710Z,3.20
2022-07-31T11:54:24.929Z,3.78
2022-07-31T11:58:28.756Z,5.72
2022-07-31T12:02:30.341Z,3.38
2022-07-31T12:06:34.856Z,4.28
2022-07-31T12:10:39.339Z,7.70
2022-07-31T12:14:40.849Z,3.50
2022-07-31T12:18:58.695Z,4.88
2022-07-31T12:23:01.294Z,3.58
2022-07-31T12:27:03.011Z,3.03
2022-07-31T12:31:04.729Z,4.65
2022-07-31T12:35:06.818Z,3.17
2022-07-31T12:39:11.656Z,13.70
2022-07-31T12:43:13.161Z,5.25
2022-07-31T12:47:40.698Z,6.93
2022-07-31T12:51:45.254Z,13.57
2022-07-31T12:55:48.383Z,4.35
2022-07-31T12:59:49.841Z,6.72
2022-07-31T13:03:52.285Z,3.28
2022-07-31T13:07:53.953Z,4.00
2022-07-31T13:11:57.888Z,5.18
2022-07-31T13:15:59.715Z,4.63
2022-07-31T13:20:01.275Z,6.40
2022-07-31T13:24:05.608Z,3.90
2022-07-31T13:28:07.078Z,4.63
2022-07-31T13:32:08.920Z,5.35
2022-07-31T13:36:10.882Z,3.88
2022-07-31T13:40:12.397Z,4.35
2022-07-31T13:44:13.825Z,2.28
2022-07-31T13:48:15.259Z,3.80
2022-07-31T13:52:16.649Z,3.63
2022-07-31T13:56:40.379Z,2.95
2022-07-31T14:00:41.123Z,3.65
2022-07-31T14:04:42.666Z,3.60
2022-07-31T14:08:50.015Z,3.65
2022-07-31T14:12:53.466Z,5.50
2022-07-31T14:16:54.897Z,2.90
2022-07-31T14:20:56.451Z,2.42
2022-07-31T14:24:57.935Z,3.30
2022-07-31T14:29:01.421Z,2.90
2022-07-31T14:33:05.781Z,2.50
2022-07-31T14:37:07.785Z,3.08
2022-07-31T14:41:09.526Z,3.10
2022-07-31T14:45:11.554Z,3.10
2022-07-31T14:49:13.068Z,3.45
2022-07-31T14:53:14.621Z,4.57
2022-07-31T14:57:20.222Z,2.97
2022-07-31T15:06:43.874Z,1.88
2022-07-31T15:09:49.864Z,3.13
2022-07-31T15:13:51.329Z,2.33
2022-07-31T15:17:52.777Z,2.90
2022-07-31T15:22:10.326Z,2.25
2022-07-31T15:26:15.886Z,4.45
2022-07-31T15:30:18.314Z,4.53
2022-07-31T15:34:19.829Z,4.03
2022-07-31T15:38:21.250Z,2.30
2022-07-31T15:42:23.294Z,1.92
2022-07-31T15:46:24.974Z,2.95
2022-07-31T15:50:26.407Z,2.85
2022-07-31T15:54:27.959Z,2.03
2022-07-31T15:58:29.472Z,1.95
2022-07-31T16:02:31.018Z,4.47
2022-07-31T16:06:32.890Z,2.65
2022-07-31T16:10:35.241Z,2.13
2022-07-31T16:14:36.847Z,4.68
2022-07-31T16:18:38.366Z,2.03
2022-07-31T16:22:41.627Z,3.88
2022-07-31T16:26:43.072Z,3.17
2022-07-31T16:30:50.606Z,3.15
2022-07-31T16:34:54.994Z,3.08
2022-07-31T16:39:19.067Z,1.75
2022-07-31T16:43:49.859Z,2.13
2022-07-31T16:47:45.871Z,2.97
2022-07-31T16:51:53.307Z,1.77
2022-07-31T16:56:00.890Z,2.13
2022-07-31T17:00:04.934Z,2.88
2022-07-31T17:04:06.402Z,3.80
2022-07-31T17:08:07.932Z,2.03
2022-07-31T17:12:09.516Z,4.43
2022-07-31T17:16:11.200Z,1.80
2022-07-31T17:20:13.568Z,2.55
2022-07-31T17:24:16.713Z,2.22
2022-07-31T17:28:18.174Z,2.40
2022-07-31T17:32:22.497Z,4.35
2022-07-31T17:36:23.960Z,4.40
2022-07-31T17:40:42.596Z,2.22
2022-07-31T17:44:46.513Z,2.63
2022-07-31T17:48:50.957Z,1.90
2022-07-31T17:52:52.439Z,7.55
2022-07-31T17:56:53.894Z,3.38
2022-07-31T18:00:55.563Z,4.10
2022-07-31T18:04:57.053Z,3.47
2022-07-31T18:08:58.854Z,2.17
2022-07-31T18:13:00.312Z,3.42
2022-07-31T18:17:02.056Z,2.72
2022-07-31T18:21:03.985Z,4.85
2022-07-31T18:25:07.494Z,9.32
2022-07-31T18:29:09.230Z,13.30
2022-07-31T18:33:12.626Z,7.78
2022-07-31T18:37:15.924Z,8.23
2022-07-31T18:41:17.662Z,5.80
2022-07-31T18:45:19.129Z,4.43
2022-07-31T18:50:59.298Z,3.33
2022-07-31T18:53:42.207Z,6.47
2022-07-31T18:57:44.082Z,4.57
2022-07-31T19:01:45.825Z,2.90
2022-07-31T19:05:49.486Z,3.35
2022-07-31T19:09:51.186Z,4.47
2022-07-31T19:13:52.623Z,3.38
2022-07-31T19:17:58.511Z,3.53
2022-07-31T19:22:00.290Z,4.82
2022-07-31T19:26:08.796Z,4.30
2022-07-31T19:30:10.824Z,4.03
2022-07-31T19:34:13.876Z,6.28
2022-07-31T19:38:15.461Z,4.20
2022-07-31T19:42:17.051Z,6.55
2022-07-31T19:46:18.774Z,6.72
2022-07-31T19:50:20.486Z,4.40
2022-07-31T19:54:22.157Z,4.93
2022-07-31T19:58:23.755Z,3.97
2022-07-31T20:02:26.135Z,6.20
2022-07-31T20:06:28.904Z,10.48
2022-07-31T20:10:30.502Z,7.03
2022-07-31T20:14:31.934Z,5.70
2022-07-31T20:18:33.639Z,5.88
2022-07-31T20:22:35.183Z,8.25
2022-07-31T20:26:36.647Z,6.63
2022-07-31T20:30:38.066Z,6.90
2022-07-31T20:34:39.579Z,8.90
2022-07-31T20:38:41.079Z,5.78
2022-07-31T20:42:42.534Z,6.60
2022-07-31T20:46:45.177Z,7.38
2022-07-31T20:50:47.878Z,4.00
2022-07-31T20:54:49.977Z,3.30
2022-07-31T20:58:52.096Z,3.85
2022-07-31T21:02:53.803Z,5.78
2022-07-31T21:06:55.276Z,2.10
2022-07-31T21:10:57.041Z,5.80
2022-07-31T21:15:02.725Z,2.67
2022-07-31T21:19:08.403Z,3.63
2022-07-31T21:23:11.829Z,7.20
2022-07-31T21:27:15.717Z,6.50
2022-07-31T21:31:17.450Z,2.97
2022-07-31T21:35:37.331Z,3.33
2022-07-31T21:39:39.433Z,4.35
2022-07-31T21:43:58.944Z,3.92
2022-07-31T21:48:11.956Z,2.20
2022-07-31T21:52:13.575Z,4.90
2022-07-31T21:56:16.182Z,2.80
2022-07-31T22:00:17.786Z,3.88
2022-07-31T22:04:34.457Z,3.63
2022-07-31T22:08:36.570Z,3.90
2022-07-31T22:12:38.087Z,4.03
2022-07-31T22:16:39.666Z,5.35
2022-07-31T22:20:41.530Z,3.55
2022-07-31T22:24:43.191Z,6.05
2022-07-31T22:28:46.372Z,2.78
2022-07-31T22:32:53.126Z,4.78
2022-07-31T22:36:55.113Z,5.22
2022-07-31T22:41:00.730Z,5.30
2022-07-31T22:45:02.461Z,4.45
2022-07-31T22:49:06.032Z,4.90
2022-07-31T22:53:07.613Z,2.00
2022-07-31T22:57:09.113Z,3.85
2022-07-31T23:01:10.550Z,4.25
2022-07-31T23:05:12.042Z,3.47
2022-07-31T23:09:13.592Z,4.43
2022-07-31T23:13:15.091Z,2.78
2022-07-31T23:17:22.408Z,1.85
2022-07-31T23:21:25.009Z,3.30
2022-07-31T23:25:26.508Z,4.45
2022-07-31T23:29:27.961Z,4.63
2022-07-31T23:33:29.393Z,3.50
2022-07-31T23:37:30.865Z,6.68
2022-07-31T23:41:50.976Z,3.33
2022-07-31T23:45:52.457Z,3.35
2022-07-31T23:49:55.062Z,3.47
2022-07-31T23:53:56.897Z,5.60
2022-07-31T23:57:58.359Z,5.97
